Tuesday, January 16, 2018, 11:54 AM GMT
Back to Local

CWST, La Pocatiere

Location: , , Canada Lat: 47.35
Local Time: 11:54 AM GMT (11:54 GMT) Lon: -70.033
Time Zone: GMT Elev: 101 ft

Show me the last for .
Show Decoded

2018-01-16 11:00 METAR CWST 161100Z AUTO 05001KT M16/M19 RMK AO1 SOG 13 6019 SLP347 T11611191 =
2018-01-16 10:00 METAR CWST 161000Z AUTO 12003KT M16/M20 RMK AO1 SOG 14 8020 SLP352 T11551197 =
2018-01-16 09:00 METAR CWST 160900Z AUTO 10003KT M17/M20 RMK AO1 SOG 14 6021 SLP360 T11671198 =
2018-01-16 08:00 METAR CWST 160800Z AUTO 00000KT M18/M21 RMK AO1 SOG 14 7021 SLP366 T11771206 =
2018-01-16 07:00 METAR CWST 160700Z AUTO 07001KT M18/M21 RMK AO1 SOG 14 6029 SLP372 T11811209 =
2018-01-16 06:00 METAR CWST 160600Z AUTO 10003KT M18/M21 RMK AO1 SOG 13 8024 SLP381 T11791211 =
2018-01-16 05:00 METAR CWST 160500Z AUTO 12006KT M19/M22 RMK AO1 SOG 13 8023 SLP388 T11911224 =
2018-01-16 04:00 METAR CWST 160400Z AUTO 09002KT M20/M23 RMK AO1 SOG 13 6020 SLP402 T12031231 =
2018-01-16 03:00 METAR CWST 160300Z AUTO 11003KT M18/M22 RMK AO1 SOG 13 6025 SLP406 T11841220 =
2018-01-16 02:00 METAR CWST 160200Z AUTO 07005KT M17/M21 RMK AO1 SOG 13 8026 SLP411 T11741213 =
2018-01-16 01:00 METAR CWST 160100Z AUTO 06005KT M17/M20 RMK AO1 SOG 13 8016 SLP422 T11681203 =
2018-01-16 00:00 METAR CWST 160000Z AUTO 10006KT M18/M21 RMK AO1 SOG 13 8004 SLP431 T11791209 =
2018-01-15 23:00 METAR CWST 152300Z AUTO 08006KT M17/M21 RMK AO1 SOG 13 6003 SLP437 T11651208 =
2018-01-15 22:00 METAR CWST 152200Z AUTO 08005KT M18/M20 RMK AO1 SOG 13 5007 SLP438 T11771204 =
2018-01-15 21:00 METAR CWST 152100Z AUTO 04006KT M18/M21 RMK AO1 SOG 13 6021 SLP435 T11781211 =
2018-01-15 20:00 METAR CWST 152000Z AUTO 04006KT M16/M21 RMK AO1 SOG 13 6025 SLP440 T11641206 =
2018-01-15 19:00 METAR CWST 151900Z AUTO 03007KT M16/M20 RMK AO1 SOG 13 8022 SLP445 T11571195 =
2018-01-15 18:00 METAR CWST 151800Z AUTO 02006KT M16/M20 RMK AO1 SOG 13 6025 SLP456 T11611203 =
2018-01-15 17:00 METAR CWST 151700Z AUTO 33002KT M17/M21 RMK AO1 SOG 14 6020 SLP465 T11681207 =
2018-01-15 16:00 METAR CWST 151600Z AUTO 04004KT M18/M22 RMK AO1 SOG 14 8016 SLP467 T11821219 =
2018-01-15 15:00 METAR CWST 151500Z AUTO 09003KT M20/M24 RMK AO1 SOG 14 0005 SLP481 T12041240 =
2018-01-15 14:00 METAR CWST 151400Z AUTO 11009KT M24/M28 RMK AO1 SOG 14 1015 SLP486 T12351279 =
2018-01-15 13:00 METAR CWST 151300Z AUTO 10007KT M26/M30 RMK AO1 SOG 14 3012 SLP484 T12621296 =
2018-01-15 12:00 METAR CWST 151200Z AUTO 12012KT M27/M31 RMK AO1 SOG 14 3009 SLP477 T12731311 =

Support USWX by starting your Amazon purchase here.